Terminal Aerodrome Forecast
Issued by NWS

Home | Current Version | Previous Version | Text Only | Print | Product List | Glossary On
Versions: 1 2 3 4 5 6 7 8 9 10 11 12 13 14
000
FTUS45 KVEF 242321
TAFHND
TAF
KHND 242321Z 2500/2524 VRB05KT P6SM FEW150 SCT250
     FM250600 17005KT P6SM SCT250
     FM251900 25005KT P6SM BKN250=

USA.gov is the U.S. government's official web portal to all federal, state and local government web resources and services.